createdAt,value
2022-10-21T00:01:23.637Z,14.90
2022-10-21T00:03:51.873Z,14.95
2022-10-21T00:06:32.031Z,15.00
2022-10-21T00:09:00.302Z,15.02
2022-10-21T00:11:28.338Z,15.03
2022-10-21T00:13:57.721Z,15.06
2022-10-21T00:16:25.868Z,15.06
2022-10-21T00:18:56.810Z,15.07
2022-10-21T00:21:27.563Z,15.06
2022-10-21T00:23:56.121Z,15.05
2022-10-21T00:26:24.068Z,15.02
2022-10-21T00:28:58.337Z,14.99
2022-10-21T00:31:26.993Z,15.00
2022-10-21T00:33:55.171Z,14.98
2022-10-21T00:36:23.190Z,14.97
2022-10-21T00:38:55.037Z,14.99
2022-10-21T00:41:23.297Z,14.98
2022-10-21T00:44:00.128Z,14.97
2022-10-21T00:46:36.096Z,14.95
2022-10-21T00:49:08.833Z,14.95
2022-10-21T00:51:37.439Z,14.97
2022-10-21T00:54:07.177Z,14.99
2022-10-21T00:56:39.299Z,15.01
2022-10-21T00:59:09.342Z,15.04
2022-10-21T01:01:37.424Z,15.06
2022-10-21T01:04:06.135Z,15.10
2022-10-21T01:06:35.745Z,15.11
2022-10-21T01:09:06.805Z,15.12
2022-10-21T01:11:41.183Z,15.14
2022-10-21T01:14:23.440Z,15.17
2022-10-21T01:17:01.076Z,15.18
2022-10-21T01:20:01.440Z,15.21
2022-10-21T01:22:46.406Z,15.25
2022-10-21T01:25:47.198Z,15.27
2022-10-21T01:28:29.111Z,15.26
2022-10-21T01:31:03.361Z,15.29
2022-10-21T01:33:42.151Z,15.28
2022-10-21T01:36:23.735Z,15.28
2022-10-21T01:39:03.582Z,15.30
2022-10-21T01:41:39.556Z,15.30
2022-10-21T01:44:16.949Z,15.30
2022-10-21T01:46:49.791Z,15.33
2022-10-21T01:49:25.567Z,15.32
2022-10-21T01:51:55.299Z,15.31
2022-10-21T01:54:28.310Z,15.29
2022-10-21T01:56:58.801Z,15.27
2022-10-21T01:59:34.658Z,15.28
2022-10-21T02:02:08.052Z,15.28
2022-10-21T02:04:41.991Z,15.27
2022-10-21T02:07:10.655Z,15.26
2022-10-21T02:09:38.617Z,15.26
2022-10-21T02:12:07.699Z,15.27
2022-10-21T02:14:41.036Z,15.28
2022-10-21T02:17:13.979Z,15.26
2022-10-21T02:19:42.620Z,15.26
2022-10-21T02:22:14.386Z,15.26
2022-10-21T02:24:51.408Z,15.26
2022-10-21T02:27:19.983Z,15.27
2022-10-21T02:29:50.405Z,15.30
2022-10-21T02:32:30.636Z,15.34
2022-10-21T02:35:15.584Z,15.35
2022-10-21T02:37:52.345Z,15.36
2022-10-21T02:40:25.013Z,15.39
2022-10-21T02:42:58.696Z,15.41
2022-10-21T02:45:28.205Z,15.44
2022-10-21T02:47:57.917Z,15.45
2022-10-21T02:50:25.907Z,15.50
2022-10-21T02:52:53.803Z,15.49
2022-10-21T02:55:21.926Z,15.52
2022-10-21T02:57:49.917Z,15.52
2022-10-21T03:00:18.137Z,15.49
2022-10-21T03:02:45.969Z,15.49
2022-10-21T03:05:15.637Z,15.48
2022-10-21T03:07:46.186Z,15.48
2022-10-21T03:10:14.215Z,15.47
2022-10-21T03:12:48.020Z,15.45
2022-10-21T03:15:16.030Z,15.46
2022-10-21T03:17:43.902Z,15.48
2022-10-21T03:20:11.986Z,15.48
2022-10-21T03:22:41.468Z,15.49
2022-10-21T03:25:10.289Z,15.53
2022-10-21T03:27:40.999Z,15.56
2022-10-21T03:30:10.690Z,15.56
2022-10-21T03:32:38.879Z,15.54
2022-10-21T03:35:08.222Z,15.52
2022-10-21T03:37:36.310Z,15.48
2022-10-21T03:40:09.919Z,15.45
2022-10-21T03:42:40.653Z,15.44
2022-10-21T03:45:09.989Z,15.42
2022-10-21T03:47:38.091Z,15.41
2022-10-21T03:50:10.186Z,15.40
2022-10-21T03:52:43.022Z,15.40
2022-10-21T03:55:12.914Z,15.40
2022-10-21T03:57:41.108Z,15.40
2022-10-21T04:00:10.224Z,15.39
2022-10-21T04:02:38.337Z,15.37
2022-10-21T04:05:07.398Z,15.36
2022-10-21T04:07:35.380Z,15.35
2022-10-21T04:10:03.385Z,15.36
2022-10-21T04:12:32.806Z,15.37
2022-10-21T04:15:00.777Z,15.39
2022-10-21T04:17:31.828Z,15.36
2022-10-21T04:19:59.938Z,15.34
2022-10-21T04:22:28.019Z,15.33
2022-10-21T04:24:58.579Z,15.30
2022-10-21T04:27:28.876Z,15.29
2022-10-21T04:29:58.242Z,15.26
2022-10-21T04:32:28.941Z,15.25
2022-10-21T04:34:56.798Z,15.24
2022-10-21T04:37:24.699Z,15.21
2022-10-21T04:39:52.964Z,15.19
2022-10-21T04:42:21.064Z,15.16
2022-10-21T04:44:49.001Z,15.15
2022-10-21T04:47:18.393Z,15.17
2022-10-21T04:49:46.357Z,15.18
2022-10-21T04:52:14.251Z,15.18
2022-10-21T04:54:42.242Z,15.17
2022-10-21T04:57:10.386Z,15.15
2022-10-21T04:59:38.383Z,15.16
2022-10-21T05:02:06.243Z,15.16
2022-10-21T05:04:35.811Z,15.14
2022-10-21T05:07:04.085Z,15.13
2022-10-21T05:09:32.459Z,15.11
2022-10-21T05:12:00.413Z,15.09
2022-10-21T05:14:30.355Z,15.09
2022-10-21T05:17:00.923Z,15.08
2022-10-21T05:19:31.268Z,15.07
2022-10-21T05:22:04.266Z,15.07
2022-10-21T05:24:32.499Z,15.09
2022-10-21T05:27:00.457Z,15.09
2022-10-21T05:29:28.614Z,15.07
2022-10-21T05:31:56.539Z,15.06
2022-10-21T05:34:24.525Z,15.08
2022-10-21T05:36:52.786Z,15.08
2022-10-21T05:39:22.161Z,15.08
2022-10-21T05:41:50.094Z,15.08
2022-10-21T05:44:18.136Z,15.09
2022-10-21T05:46:46.087Z,15.10
2022-10-21T05:49:14.258Z,15.10
2022-10-21T05:51:42.217Z,15.08
2022-10-21T05:54:10.140Z,15.06
2022-10-21T05:56:39.518Z,15.08
2022-10-21T05:59:10.050Z,15.11
2022-10-21T06:01:39.564Z,15.13
2022-10-21T06:04:07.638Z,15.14
2022-10-21T06:06:35.653Z,15.18
2022-10-21T06:09:03.781Z,15.22
2022-10-21T06:11:35.101Z,15.24
2022-10-21T06:14:04.581Z,15.26
2022-10-21T06:16:35.186Z,15.27
2022-10-21T06:19:03.493Z,15.32
2022-10-21T06:21:34.465Z,15.34
2022-10-21T06:24:05.580Z,15.35
2022-10-21T06:26:39.393Z,15.35
2022-10-21T06:29:11.648Z,15.35
2022-10-21T06:31:39.709Z,15.34
2022-10-21T06:34:07.728Z,15.32
2022-10-21T06:36:38.209Z,15.29
2022-10-21T06:39:06.256Z,15.29
2022-10-21T06:41:34.173Z,15.29
2022-10-21T06:44:02.379Z,15.30
2022-10-21T06:46:32.258Z,15.32
2022-10-21T06:49:00.495Z,15.34
2022-10-21T06:51:32.075Z,15.35
2022-10-21T06:54:01.192Z,15.35
2022-10-21T06:56:29.504Z,15.35
2022-10-21T06:59:00.068Z,15.36
2022-10-21T07:01:35.305Z,15.37
2022-10-21T07:04:11.610Z,15.38
2022-10-21T07:06:39.721Z,15.41
2022-10-21T07:09:09.231Z,15.48
2022-10-21T07:11:37.195Z,15.56
2022-10-21T07:14:05.727Z,15.62
2022-10-21T07:16:37.411Z,15.66
2022-10-21T07:19:05.857Z,15.72
2022-10-21T07:21:35.490Z,15.75
2022-10-21T07:24:03.441Z,15.76
2022-10-21T07:26:33.572Z,15.77
2022-10-21T07:29:02.489Z,15.78
2022-10-21T07:31:34.544Z,15.74
2022-10-21T07:36:33.557Z,15.63
2022-10-21T07:39:05.787Z,15.60
2022-10-21T07:41:35.806Z,15.58
2022-10-21T07:44:04.279Z,15.55
2022-10-21T07:46:32.655Z,15.54
2022-10-21T07:49:00.528Z,15.53
2022-10-21T07:51:30.240Z,15.54
2022-10-21T07:54:00.666Z,15.58
2022-10-21T07:56:32.146Z,15.60
2022-10-21T07:59:01.651Z,15.62
2022-10-21T08:01:30.499Z,15.64
2022-10-21T08:03:59.161Z,15.65
2022-10-21T08:06:28.846Z,15.68
2022-10-21T08:08:57.443Z,15.70
2022-10-21T08:11:26.933Z,15.70
2022-10-21T08:14:29.425Z,15.68
2022-10-21T08:16:57.505Z,15.65
2022-10-21T08:19:29.625Z,15.67
2022-10-21T08:21:59.260Z,15.71
2022-10-21T08:24:28.130Z,15.73
2022-10-21T08:26:56.682Z,15.69
2022-10-21T08:29:26.118Z,15.63
2022-10-21T08:31:54.178Z,15.59
2022-10-21T08:34:23.448Z,15.54
2022-10-21T08:36:53.469Z,15.49
2022-10-21T08:39:25.057Z,15.48
2022-10-21T08:42:08.803Z,15.49
2022-10-21T08:44:49.164Z,15.52
2022-10-21T08:47:24.207Z,15.60
2022-10-21T08:50:03.064Z,15.70
2022-10-21T08:52:39.842Z,15.85
2022-10-21T08:55:16.814Z,15.97
2022-10-21T08:57:44.814Z,16.03
2022-10-21T09:00:18.136Z,16.06
2022-10-21T09:03:00.909Z,16.06
2022-10-21T09:05:47.864Z,16.03
2022-10-21T09:08:25.620Z,16.01
2022-10-21T09:11:02.513Z,16.02
2022-10-21T09:13:50.395Z,16.02
2022-10-21T09:16:25.163Z,16.04
2022-10-21T09:19:02.476Z,16.06
2022-10-21T09:21:45.304Z,16.18
2022-10-21T09:24:23.464Z,16.39
2022-10-21T09:26:53.938Z,16.67
2022-10-21T09:29:29.136Z,16.83
2022-10-21T09:32:09.646Z,16.90
2022-10-21T09:34:45.534Z,16.98
2022-10-21T09:37:20.744Z,16.99
2022-10-21T09:39:55.310Z,17.03
2022-10-21T09:42:42.770Z,16.98
2022-10-21T09:45:22.235Z,16.87
2022-10-21T09:47:57.336Z,16.78
2022-10-21T09:50:27.173Z,16.85
2022-10-21T09:53:01.821Z,16.87
2022-10-21T09:55:31.377Z,16.87
2022-10-21T09:58:00.918Z,16.88
2022-10-21T10:00:50.010Z,16.83
2022-10-21T10:03:37.747Z,16.91
2022-10-21T10:06:07.126Z,16.91
2022-10-21T10:08:39.885Z,16.95
2022-10-21T10:11:21.941Z,16.94
2022-10-21T10:13:54.964Z,16.91
2022-10-21T10:16:28.022Z,16.84
2022-10-21T10:19:16.649Z,16.78
2022-10-21T10:21:45.278Z,16.69
2022-10-21T10:24:18.757Z,16.61
2022-10-21T10:26:47.272Z,16.56
2022-10-21T10:29:26.894Z,16.50
2022-10-21T10:32:04.927Z,16.46
2022-10-21T10:34:38.445Z,16.60
2022-10-21T10:37:09.382Z,16.78
2022-10-21T10:39:44.962Z,16.75
2022-10-21T10:42:17.998Z,16.70
2022-10-21T10:44:46.589Z,16.72
2022-10-21T10:47:23.767Z,16.78
2022-10-21T10:49:53.558Z,16.85
2022-10-21T10:52:24.511Z,16.92
2022-10-21T10:55:21.312Z,17.08
2022-10-21T10:58:13.493Z,17.15
2022-10-21T11:00:46.638Z,17.26
2022-10-21T11:03:25.998Z,17.25
2022-10-21T11:06:04.149Z,17.22
2022-10-21T11:08:40.447Z,17.19
2022-10-21T11:11:15.273Z,17.09
2022-10-21T11:13:43.218Z,17.10
2022-10-21T11:16:27.620Z,17.20
2022-10-21T11:19:04.371Z,17.25
2022-10-21T11:21:45.688Z,17.23
2022-10-21T11:24:24.316Z,17.15
2022-10-21T11:26:58.633Z,17.19
2022-10-21T11:29:40.977Z,17.25
2022-10-21T11:32:21.555Z,17.34
2022-10-21T11:34:58.804Z,17.38
2022-10-21T11:37:41.818Z,17.42
2022-10-21T11:40:19.491Z,17.45
2022-10-21T11:42:50.881Z,17.66
2022-10-21T11:45:34.382Z,17.69
2022-10-21T11:48:24.231Z,17.57
2022-10-21T11:51:05.141Z,17.41
2022-10-21T11:53:52.340Z,17.32
2022-10-21T11:56:28.391Z,17.20
2022-10-21T11:59:07.141Z,16.98
2022-10-21T12:01:43.559Z,16.82
2022-10-21T12:04:25.099Z,16.67
2022-10-21T12:07:11.364Z,16.54
2022-10-21T12:09:46.789Z,16.42
2022-10-21T12:12:17.589Z,16.39
2022-10-21T12:14:51.552Z,16.37
2022-10-21T12:17:21.325Z,16.38
2022-10-21T12:19:55.916Z,16.38
2022-10-21T12:22:27.019Z,16.46
2022-10-21T12:25:01.994Z,16.52
2022-10-21T12:27:40.459Z,16.55
2022-10-21T12:30:16.997Z,16.54
2022-10-21T12:32:55.065Z,16.53
2022-10-21T12:35:28.298Z,16.50
2022-10-21T12:38:07.903Z,16.51
2022-10-21T12:40:40.027Z,16.53
2022-10-21T12:43:20.399Z,16.54
2022-10-21T12:46:02.143Z,16.53
2022-10-21T12:48:38.428Z,16.54
2022-10-21T12:51:21.726Z,16.58
2022-10-21T12:56:33.008Z,16.60
2022-10-21T12:59:08.810Z,16.54
2022-10-21T13:01:43.098Z,16.41
2022-10-21T13:04:49.085Z,16.30
2022-10-21T13:08:13.511Z,16.29
2022-10-21T13:10:41.588Z,16.32
2022-10-21T13:13:33.244Z,16.39
2022-10-21T13:16:03.637Z,16.43
2022-10-21T13:19:02.797Z,16.50
2022-10-21T13:21:38.447Z,16.58
2022-10-21T13:24:25.001Z,16.62
2022-10-21T13:26:55.960Z,16.58
2022-10-21T13:29:50.982Z,16.57
2022-10-21T13:32:30.696Z,16.58
2022-10-21T13:35:24.092Z,16.60
2022-10-21T13:37:56.453Z,16.59
2022-10-21T13:40:28.969Z,16.53
2022-10-21T13:42:59.915Z,16.49
2022-10-21T13:45:32.780Z,16.43
2022-10-21T13:48:06.682Z,16.38
2022-10-21T13:50:39.722Z,16.32
2022-10-21T13:53:28.531Z,16.32
2022-10-21T13:56:02.396Z,16.31
2022-10-21T13:58:36.040Z,16.30
2022-10-21T14:01:15.560Z,16.38
2022-10-21T14:03:46.290Z,16.48
2022-10-21T14:06:26.227Z,16.65
2022-10-21T14:08:56.168Z,16.91
2022-10-21T14:11:28.573Z,17.24
2022-10-21T14:14:00.507Z,17.33
2022-10-21T14:16:34.701Z,17.26
2022-10-21T14:19:07.419Z,17.18
2022-10-21T14:21:39.141Z,17.07
2022-10-21T14:24:07.808Z,17.05
2022-10-21T14:26:36.092Z,17.09
2022-10-21T14:29:05.834Z,17.24
2022-10-21T14:31:37.378Z,17.41
2022-10-21T14:34:07.273Z,17.61
2022-10-21T14:36:35.151Z,17.66
2022-10-21T14:39:07.612Z,17.69
2022-10-21T14:41:37.420Z,17.72
2022-10-21T14:44:15.027Z,17.63
2022-10-21T14:46:49.113Z,17.55
2022-10-21T14:49:23.945Z,17.47
2022-10-21T14:51:57.366Z,17.40
2022-10-21T14:54:32.121Z,17.33
2022-10-21T14:57:01.419Z,17.33
2022-10-21T14:59:38.181Z,17.31
2022-10-21T15:02:19.806Z,17.25
2022-10-21T15:04:53.566Z,17.22
2022-10-21T15:07:30.043Z,17.15
2022-10-21T15:10:01.372Z,17.08
2022-10-21T15:12:40.153Z,17.00
2022-10-21T15:15:42.335Z,16.96
2022-10-21T15:18:15.626Z,16.84
2022-10-21T15:20:55.094Z,16.70
2022-10-21T15:23:27.267Z,16.57
2022-10-21T15:26:00.420Z,16.50
2022-10-21T15:28:31.512Z,16.43
2022-10-21T15:31:00.155Z,16.37
2022-10-21T15:33:32.268Z,16.34
2022-10-21T15:36:04.955Z,16.34
2022-10-21T15:38:32.998Z,16.36
2022-10-21T15:41:01.026Z,16.41
2022-10-21T15:43:32.252Z,16.45
2022-10-21T15:46:00.259Z,16.45
2022-10-21T15:48:29.672Z,16.42
2022-10-21T15:50:59.259Z,16.40
2022-10-21T15:53:27.374Z,16.36
2022-10-21T15:55:58.415Z,16.31
2022-10-21T15:58:35.663Z,16.30
2022-10-21T16:01:03.834Z,16.26
2022-10-21T16:03:33.381Z,16.21
2022-10-21T16:06:03.844Z,16.15
2022-10-21T16:08:32.047Z,16.12
2022-10-21T16:10:59.983Z,16.10
2022-10-21T16:13:27.917Z,16.10
2022-10-21T16:15:56.323Z,16.10
2022-10-21T16:18:24.297Z,16.08
2022-10-21T16:20:55.512Z,16.08
2022-10-21T16:23:26.002Z,16.08
2022-10-21T16:25:59.268Z,16.08
2022-10-21T16:28:29.656Z,16.09
2022-10-21T16:30:57.548Z,16.10
2022-10-21T16:33:25.490Z,16.12
2022-10-21T16:35:54.800Z,16.12
2022-10-21T16:38:22.796Z,16.14
2022-10-21T16:40:50.697Z,16.15
2022-10-21T16:43:18.641Z,16.17
2022-10-21T16:45:46.536Z,16.19
2022-10-21T16:48:14.933Z,16.20
2022-10-21T16:50:46.822Z,16.20
2022-10-21T16:53:18.145Z,16.21
2022-10-21T16:55:46.087Z,16.21
2022-10-21T16:58:14.320Z,16.22
2022-10-21T17:00:42.445Z,16.22
2022-10-21T17:03:11.976Z,16.20
2022-10-21T17:05:39.815Z,16.12
2022-10-21T17:08:07.690Z,16.04
2022-10-21T17:10:36.945Z,15.97
2022-10-21T17:13:05.125Z,15.87
2022-10-21T17:15:33.038Z,15.77
2022-10-21T17:18:00.865Z,15.68
2022-10-21T17:20:30.588Z,15.65
2022-10-21T17:22:58.859Z,15.63
2022-10-21T17:25:27.472Z,15.63
2022-10-21T17:27:57.126Z,15.62
2022-10-21T17:30:26.767Z,15.61
2022-10-21T17:32:54.634Z,15.59
2022-10-21T17:35:22.953Z,15.56
2022-10-21T17:37:52.157Z,15.48
2022-10-21T17:40:22.552Z,15.44
2022-10-21T17:42:50.950Z,15.41
2022-10-21T17:45:21.341Z,15.42
2022-10-21T17:47:49.978Z,15.43
2022-10-21T17:50:23.528Z,15.44
2022-10-21T17:52:52.217Z,15.43
2022-10-21T17:55:20.806Z,15.43
2022-10-21T17:57:48.688Z,15.43
2022-10-21T18:00:16.691Z,15.45
2022-10-21T18:02:45.977Z,15.47
2022-10-21T18:05:13.928Z,15.51
2022-10-21T18:07:42.159Z,15.51
2022-10-21T18:10:10.739Z,15.55
2022-10-21T18:12:38.896Z,15.56
2022-10-21T18:15:07.782Z,15.55
2022-10-21T18:17:37.431Z,15.56
2022-10-21T18:20:08.724Z,15.55
2022-10-21T18:22:36.770Z,15.55
2022-10-21T18:25:05.373Z,15.56
2022-10-21T18:27:33.324Z,15.57
2022-10-21T18:30:01.313Z,15.55
2022-10-21T18:32:29.143Z,15.55
2022-10-21T18:34:56.974Z,15.54
2022-10-21T18:37:26.605Z,15.54
2022-10-21T18:39:56.793Z,15.54
2022-10-21T18:42:26.943Z,15.55
2022-10-21T18:44:55.053Z,15.54
2022-10-21T18:47:23.001Z,15.56
2022-10-21T18:49:51.278Z,15.57
2022-10-21T18:52:19.073Z,15.57
2022-10-21T18:54:58.186Z,15.59
2022-10-21T18:57:26.113Z,15.62
2022-10-21T18:59:54.539Z,15.65
2022-10-21T19:02:24.138Z,15.64
2022-10-21T19:04:52.068Z,15.63
2022-10-21T19:07:21.992Z,15.65
2022-10-21T19:09:51.281Z,15.65
2022-10-21T19:12:23.170Z,15.66
2022-10-21T19:14:51.503Z,15.66
2022-10-21T19:17:19.807Z,15.66
2022-10-21T19:19:51.151Z,15.65
2022-10-21T19:22:19.997Z,15.64
2022-10-21T19:24:50.258Z,15.63
2022-10-21T19:27:24.297Z,15.64
2022-10-21T19:29:52.742Z,15.62
2022-10-21T19:32:20.577Z,15.62
2022-10-21T19:34:48.408Z,15.59
2022-10-21T19:37:18.315Z,15.58
2022-10-21T19:39:48.511Z,15.57
2022-10-21T19:42:18.997Z,15.54
2022-10-21T19:44:48.252Z,15.52
2022-10-21T19:47:16.058Z,15.50
2022-10-21T19:49:43.927Z,15.49
2022-10-21T19:52:11.901Z,15.48
2022-10-21T19:54:43.439Z,15.46
2022-10-21T19:57:11.261Z,15.42
2022-10-21T19:59:39.096Z,15.39
2022-10-21T20:02:10.024Z,15.36
2022-10-21T20:04:38.685Z,15.36
2022-10-21T20:07:20.307Z,15.37
2022-10-21T20:09:48.129Z,15.36
2022-10-21T20:12:16.046Z,15.37
2022-10-21T20:14:44.299Z,15.35
2022-10-21T20:17:18.106Z,15.34
2022-10-21T20:19:48.195Z,15.35
2022-10-21T20:22:16.122Z,15.36
2022-10-21T20:24:46.620Z,15.38
2022-10-21T20:27:19.019Z,15.40
2022-10-21T20:29:47.158Z,15.41
2022-10-21T20:32:16.332Z,15.42
2022-10-21T20:34:51.060Z,15.43
2022-10-21T20:37:21.656Z,15.43
2022-10-21T20:39:49.695Z,15.45
2022-10-21T20:42:17.534Z,15.47
2022-10-21T20:44:48.172Z,15.47
2022-10-21T20:47:20.632Z,15.52
2022-10-21T20:49:55.683Z,15.52
2022-10-21T20:52:23.555Z,15.54
2022-10-21T20:54:54.374Z,15.54
2022-10-21T20:57:22.466Z,15.52
2022-10-21T20:59:50.328Z,15.53
2022-10-21T21:02:18.230Z,15.52
2022-10-21T21:04:52.866Z,15.53
2022-10-21T21:07:22.573Z,15.54
2022-10-21T21:10:02.319Z,15.52
2022-10-21T21:12:32.171Z,15.54
2022-10-21T21:15:00.204Z,15.51
2022-10-21T21:17:28.025Z,15.50
2022-10-21T21:19:58.280Z,15.50
2022-10-21T21:22:26.093Z,15.51
2022-10-21T21:24:54.041Z,15.52
2022-10-21T21:27:21.923Z,15.54
2022-10-21T21:29:52.489Z,15.54
2022-10-21T21:32:20.342Z,15.56
2022-10-21T21:34:56.787Z,15.56
2022-10-21T21:37:27.340Z,15.57
2022-10-21T21:39:55.124Z,15.58
2022-10-21T21:42:23.114Z,15.58
2022-10-21T21:44:51.038Z,15.57
2022-10-21T21:47:18.847Z,15.58
2022-10-21T21:49:46.824Z,15.56
2022-10-21T21:52:15.284Z,15.57
2022-10-21T21:54:44.636Z,15.56
2022-10-21T21:57:27.459Z,15.56
2022-10-21T21:59:57.781Z,15.56
2022-10-21T22:02:25.729Z,15.56
2022-10-21T22:04:53.580Z,15.48
2022-10-21T22:07:21.490Z,15.40
2022-10-21T22:09:50.732Z,15.35
2022-10-21T22:12:20.935Z,15.29
2022-10-21T22:14:53.790Z,15.27
2022-10-21T22:17:21.626Z,15.28
2022-10-21T22:19:53.700Z,15.29
2022-10-21T22:22:21.870Z,15.22
2022-10-21T22:24:51.140Z,15.13
2022-10-21T22:27:19.015Z,15.06
2022-10-21T22:29:49.815Z,15.04
2022-10-21T22:32:18.245Z,15.02
2022-10-21T22:34:46.356Z,15.00
2022-10-21T22:37:14.489Z,14.98
2022-10-21T22:39:42.376Z,14.99
2022-10-21T22:42:11.562Z,14.99
2022-10-21T22:44:42.166Z,15.00
2022-10-21T22:47:09.991Z,14.96
2022-10-21T22:49:37.763Z,14.85
2022-10-21T22:52:05.758Z,14.78
2022-10-21T22:54:48.565Z,14.73
2022-10-21T22:57:18.928Z,14.75
2022-10-21T22:59:52.127Z,14.75
2022-10-21T23:02:21.218Z,14.75
2022-10-21T23:04:49.049Z,14.72
2022-10-21T23:07:16.872Z,14.70
2022-10-21T23:09:44.729Z,14.67
2022-10-21T23:12:12.534Z,14.63
2022-10-21T23:14:42.080Z,14.62
2022-10-21T23:17:09.968Z,14.63
2022-10-21T23:19:37.823Z,14.63
2022-10-21T23:22:05.607Z,14.66
2022-10-21T23:24:37.043Z,14.69
2022-10-21T23:27:07.787Z,14.70
2022-10-21T23:29:35.651Z,14.72
2022-10-21T23:32:05.583Z,14.73
2022-10-21T23:34:33.607Z,14.74
2022-10-21T23:37:01.432Z,14.72
2022-10-21T23:39:31.727Z,14.75
2022-10-21T23:41:59.545Z,14.77
2022-10-21T23:44:29.260Z,14.80
2022-10-21T23:46:57.243Z,14.79
2022-10-21T23:49:26.574Z,14.76
2022-10-21T23:51:58.223Z,14.74
2022-10-21T23:54:26.138Z,14.74
2022-10-21T23:56:56.343Z,14.70
2022-10-21T23:59:26.612Z,14.63
